sensor_id;sensor_type;location;lat;lon;timestamp;temperature;humidity
78571;SHT31;67861;51.966;5.672;2023-03-31T00:02:22;14.2;63.9
78571;SHT31;67861;51.966;5.672;2023-03-31T00:04:52;14.2;64.1
78571;SHT31;67861;51.966;5.672;2023-03-31T00:07:26;14.2;64.0
78571;SHT31;67861;51.966;5.672;2023-03-31T00:09:55;14.2;64.2
78571;SHT31;67861;51.966;5.672;2023-03-31T00:12:28;14.2;64.2
78571;SHT31;67861;51.966;5.672;2023-03-31T00:14:58;14.2;64.4
78571;SHT31;67861;51.966;5.672;2023-03-31T00:17:28;14.2;64.4
78571;SHT31;67861;51.966;5.672;2023-03-31T00:19:59;14.2;64.6
78571;SHT31;67861;51.966;5.672;2023-03-31T00:22:39;14.2;64.6
78571;SHT31;67861;51.966;5.672;2023-03-31T00:25:14;14.2;64.6
78571;SHT31;67861;51.966;5.672;2023-03-31T00:27:45;14.2;64.9
78571;SHT31;67861;51.966;5.672;2023-03-31T00:30:18;14.2;64.7
78571;SHT31;67861;51.966;5.672;2023-03-31T00:32:48;14.2;64.7
78571;SHT31;67861;51.966;5.672;2023-03-31T00:35:18;14.2;64.6
78571;SHT31;67861;51.966;5.672;2023-03-31T00:37:47;14.2;64.6
78571;SHT31;67861;51.966;5.672;2023-03-31T00:40:17;14.2;64.7
78571;SHT31;67861;51.966;5.672;2023-03-31T00:42:47;14.2;64.7
78571;SHT31;67861;51.966;5.672;2023-03-31T00:45:24;14.2;64.7
78571;SHT31;67861;51.966;5.672;2023-03-31T00:48:01;14.3;64.9
78571;SHT31;67861;51.966;5.672;2023-03-31T00:50:36;14.3;65.3
78571;SHT31;67861;51.966;5.672;2023-03-31T00:53:12;14.3;65.5
78571;SHT31;67861;51.966;5.672;2023-03-31T00:55:47;14.3;66.1
78571;SHT31;67861;51.966;5.672;2023-03-31T00:58:18;14.3;66.3
78571;SHT31;67861;51.966;5.672;2023-03-31T01:00:50;14.3;66.9
78571;SHT31;67861;51.966;5.672;2023-03-31T01:03:21;14.3;67.2
78571;SHT31;67861;51.966;5.672;2023-03-31T01:05:55;14.3;67.4
78571;SHT31;67861;51.966;5.672;2023-03-31T01:08:26;14.2;67.4
78571;SHT31;67861;51.966;5.672;2023-03-31T01:10:59;14.2;67.3
78571;SHT31;67861;51.966;5.672;2023-03-31T01:13:31;14.2;67.6
78571;SHT31;67861;51.966;5.672;2023-03-31T01:16:03;14.2;67.3
78571;SHT31;67861;51.966;5.672;2023-03-31T01:18:34;14.2;67.4
78571;SHT31;67861;51.966;5.672;2023-03-31T01:22:04;14.2;67.5
78571;SHT31;67861;51.966;5.672;2023-03-31T01:26:42;14.2;67.1
78571;SHT31;67861;51.966;5.672;2023-03-31T01:29:52;14.2;66.9
78571;SHT31;67861;51.966;5.672;2023-03-31T01:34:00;14.2;66.8
78571;SHT31;67861;51.966;5.672;2023-03-31T01:41:48;14.2;66.8
78571;SHT31;67861;51.966;5.672;2023-03-31T01:44:28;14.3;66.7
78571;SHT31;67861;51.966;5.672;2023-03-31T01:47:05;14.3;66.7
78571;SHT31;67861;51.966;5.672;2023-03-31T01:49:42;14.3;66.7
78571;SHT31;67861;51.966;5.672;2023-03-31T01:52:19;14.3;66.8
78571;SHT31;67861;51.966;5.672;2023-03-31T01:54:54;14.3;66.8
78571;SHT31;67861;51.966;5.672;2023-03-31T01:57:30;14.3;66.8
78571;SHT31;67861;51.966;5.672;2023-03-31T02:00:04;14.3;66.8
78571;SHT31;67861;51.966;5.672;2023-03-31T02:02:42;14.3;66.8
78571;SHT31;67861;51.966;5.672;2023-03-31T02:05:17;14.3;66.8
78571;SHT31;67861;51.966;5.672;2023-03-31T02:07:55;14.3;66.8
78571;SHT31;67861;51.966;5.672;2023-03-31T02:10:30;14.3;66.9
78571;SHT31;67861;51.966;5.672;2023-03-31T02:13:03;14.3;66.7
78571;SHT31;67861;51.966;5.672;2023-03-31T02:15:36;14.3;66.8
78571;SHT31;67861;51.966;5.672;2023-03-31T02:18:11;14.3;66.8
78571;SHT31;67861;51.966;5.672;2023-03-31T02:20:49;14.3;66.7
78571;SHT31;67861;51.966;5.672;2023-03-31T02:23:23;14.3;66.7
78571;SHT31;67861;51.966;5.672;2023-03-31T02:26:00;14.3;66.9
78571;SHT31;67861;51.966;5.672;2023-03-31T02:28:32;14.3;66.9
78571;SHT31;67861;51.966;5.672;2023-03-31T02:31:08;14.3;66.8
78571;SHT31;67861;51.966;5.672;2023-03-31T02:33:39;14.3;67.1
78571;SHT31;67861;51.966;5.672;2023-03-31T02:36:12;14.3;67.2
78571;SHT31;67861;51.966;5.672;2023-03-31T02:38:46;14.3;67.2
78571;SHT31;67861;51.966;5.672;2023-03-31T02:41:17;14.3;67.3
78571;SHT31;67861;51.966;5.672;2023-03-31T02:43:47;14.2;67.5
78571;SHT31;67861;51.966;5.672;2023-03-31T02:46:17;14.2;67.8
78571;SHT31;67861;51.966;5.672;2023-03-31T02:48:51;14.2;67.8
78571;SHT31;67861;51.966;5.672;2023-03-31T02:56:02;14.2;67.9
78571;SHT31;67861;51.966;5.672;2023-03-31T02:58:48;14.2;67.8
78571;SHT31;67861;51.966;5.672;2023-03-31T03:01:40;14.2;67.5
78571;SHT31;67861;51.966;5.672;2023-03-31T03:04:26;14.2;67.6
78571;SHT31;67861;51.966;5.672;2023-03-31T03:07:10;14.2;67.4
78571;SHT31;67861;51.966;5.672;2023-03-31T03:09:52;14.2;67.5
78571;SHT31;67861;51.966;5.672;2023-03-31T03:12:31;14.2;67.5
78571;SHT31;67861;51.966;5.672;2023-03-31T03:15:06;14.2;67.4
78571;SHT31;67861;51.966;5.672;2023-03-31T03:17:41;14.2;67.6
78571;SHT31;67861;51.966;5.672;2023-03-31T03:20:13;14.2;67.4
78571;SHT31;67861;51.966;5.672;2023-03-31T03:22:45;14.2;67.3
78571;SHT31;67861;51.966;5.672;2023-03-31T03:25:15;14.2;67.2
78571;SHT31;67861;51.966;5.672;2023-03-31T03:27:46;14.1;67.0
78571;SHT31;67861;51.966;5.672;2023-03-31T03:30:19;14.1;66.9
78571;SHT31;67861;51.966;5.672;2023-03-31T03:32:49;14.1;66.9
78571;SHT31;67861;51.966;5.672;2023-03-31T03:35:21;14.1;67.0
78571;SHT31;67861;51.966;5.672;2023-03-31T03:37:50;14.1;67.2
78571;SHT31;67861;51.966;5.672;2023-03-31T03:40:20;14.1;67.4
78571;SHT31;67861;51.966;5.672;2023-03-31T03:42:53;14.1;67.5
78571;SHT31;67861;51.966;5.672;2023-03-31T03:45:22;14.1;67.7
78571;SHT31;67861;51.966;5.672;2023-03-31T03:47:52;14.1;67.6
78571;SHT31;67861;51.966;5.672;2023-03-31T03:50:22;14.1;67.7
78571;SHT31;67861;51.966;5.672;2023-03-31T03:52:52;14.1;67.7
78571;SHT31;67861;51.966;5.672;2023-03-31T03:55:22;14.1;67.8
78571;SHT31;67861;51.966;5.672;2023-03-31T03:57:52;14.1;68.0
78571;SHT31;67861;51.966;5.672;2023-03-31T04:00:22;14.1;68.2
78571;SHT31;67861;51.966;5.672;2023-03-31T04:02:51;14.1;68.1
78571;SHT31;67861;51.966;5.672;2023-03-31T04:05:21;14.1;68.4
78571;SHT31;67861;51.966;5.672;2023-03-31T04:07:51;14.1;68.4
78571;SHT31;67861;51.966;5.672;2023-03-31T04:10:20;14.1;68.7
78571;SHT31;67861;51.966;5.672;2023-03-31T04:12:50;14.1;68.6
78571;SHT31;67861;51.966;5.672;2023-03-31T04:15:20;14.0;68.8
78571;SHT31;67861;51.966;5.672;2023-03-31T04:17:50;14.0;68.9
78571;SHT31;67861;51.966;5.672;2023-03-31T04:20:21;14.0;69.1
78571;SHT31;67861;51.966;5.672;2023-03-31T04:22:54;14.0;69.2
78571;SHT31;67861;51.966;5.672;2023-03-31T04:25:24;14.0;69.3
78571;SHT31;67861;51.966;5.672;2023-03-31T04:27:57;14.0;69.2
78571;SHT31;67861;51.966;5.672;2023-03-31T04:30:31;14.0;69.3
78571;SHT31;67861;51.966;5.672;2023-03-31T04:33:06;14.0;69.3
78571;SHT31;67861;51.966;5.672;2023-03-31T04:35:36;13.9;69.3
78571;SHT31;67861;51.966;5.672;2023-03-31T04:38:16;13.9;69.3
78571;SHT31;67861;51.966;5.672;2023-03-31T04:40:49;13.9;69.4
78571;SHT31;67861;51.966;5.672;2023-03-31T04:43:20;13.9;69.8
78571;SHT31;67861;51.966;5.672;2023-03-31T04:45:50;13.9;70.0
78571;SHT31;67861;51.966;5.672;2023-03-31T04:48:22;13.9;70.0
78571;SHT31;67861;51.966;5.672;2023-03-31T04:50:51;13.9;69.9
78571;SHT31;67861;51.966;5.672;2023-03-31T04:53:22;13.9;69.9
78571;SHT31;67861;51.966;5.672;2023-03-31T04:55:52;13.8;70.1
78571;SHT31;67861;51.966;5.672;2023-03-31T04:58:22;13.8;70.0
78571;SHT31;67861;51.966;5.672;2023-03-31T05:00:54;13.8;69.9
78571;SHT31;67861;51.966;5.672;2023-03-31T05:03:24;13.8;69.9
78571;SHT31;67861;51.966;5.672;2023-03-31T05:05:55;13.8;70.1
78571;SHT31;67861;51.966;5.672;2023-03-31T05:08:24;13.8;70.1
78571;SHT31;67861;51.966;5.672;2023-03-31T05:10:57;13.8;69.9
78571;SHT31;67861;51.966;5.672;2023-03-31T05:13:26;13.8;69.8
78571;SHT31;67861;51.966;5.672;2023-03-31T05:15:56;13.8;69.8
78571;SHT31;67861;51.966;5.672;2023-03-31T05:18:28;13.8;69.8
78571;SHT31;67861;51.966;5.672;2023-03-31T05:21:09;13.8;69.6
78571;SHT31;67861;51.966;5.672;2023-03-31T05:23:39;13.8;69.7
78571;SHT31;67861;51.966;5.672;2023-03-31T05:26:10;13.8;69.7
78571;SHT31;67861;51.966;5.672;2023-03-31T05:28:46;13.8;69.5
78571;SHT31;67861;51.966;5.672;2023-03-31T05:31:19;13.8;69.7
78571;SHT31;67861;51.966;5.672;2023-03-31T05:33:49;13.8;69.6
78571;SHT31;67861;51.966;5.672;2023-03-31T05:36:19;13.8;69.6
78571;SHT31;67861;51.966;5.672;2023-03-31T05:38:50;13.8;69.6
78571;SHT31;67861;51.966;5.672;2023-03-31T05:41:19;13.7;69.6
78571;SHT31;67861;51.966;5.672;2023-03-31T05:43:50;13.7;69.6
78571;SHT31;67861;51.966;5.672;2023-03-31T05:46:19;13.7;69.6
78571;SHT31;67861;51.966;5.672;2023-03-31T05:48:53;13.7;69.6
78571;SHT31;67861;51.966;5.672;2023-03-31T05:51:23;13.7;69.6
78571;SHT31;67861;51.966;5.672;2023-03-31T05:53:53;13.7;69.6
78571;SHT31;67861;51.966;5.672;2023-03-31T05:56:23;13.7;69.6
78571;SHT31;67861;51.966;5.672;2023-03-31T05:58:54;13.7;69.7
78571;SHT31;67861;51.966;5.672;2023-03-31T06:01:24;13.7;69.9
78571;SHT31;67861;51.966;5.672;2023-03-31T06:03:54;13.7;69.9
78571;SHT31;67861;51.966;5.672;2023-03-31T06:06:24;13.7;69.9
78571;SHT31;67861;51.966;5.672;2023-03-31T06:08:54;13.7;69.6
78571;SHT31;67861;51.966;5.672;2023-03-31T06:11:24;13.7;69.5
78571;SHT31;67861;51.966;5.672;2023-03-31T06:13:54;13.7;68.8
78571;SHT31;67861;51.966;5.672;2023-03-31T06:16:23;13.7;68.8
78571;SHT31;67861;51.966;5.672;2023-03-31T06:18:55;13.7;69.0
78571;SHT31;67861;51.966;5.672;2023-03-31T06:21:25;13.7;68.9
78571;SHT31;67861;51.966;5.672;2023-03-31T06:23:55;13.7;69.0
78571;SHT31;67861;51.966;5.672;2023-03-31T06:26:26;13.7;69.2
78571;SHT31;67861;51.966;5.672;2023-03-31T06:28:57;13.7;69.3
78571;SHT31;67861;51.966;5.672;2023-03-31T06:31:27;13.7;69.3
78571;SHT31;67861;51.966;5.672;2023-03-31T06:33:57;13.7;69.1
78571;SHT31;67861;51.966;5.672;2023-03-31T06:36:29;13.8;69.2
78571;SHT31;67861;51.966;5.672;2023-03-31T06:38:59;13.8;68.9
78571;SHT31;67861;51.966;5.672;2023-03-31T06:41:29;13.8;68.4
78571;SHT31;67861;51.966;5.672;2023-03-31T06:43:59;13.8;68.6
78571;SHT31;67861;51.966;5.672;2023-03-31T06:46:30;13.8;68.3
78571;SHT31;67861;51.966;5.672;2023-03-31T06:49:00;13.8;68.1
78571;SHT31;67861;51.966;5.672;2023-03-31T06:51:30;13.9;68.2
78571;SHT31;67861;51.966;5.672;2023-03-31T06:53:59;13.9;68.0
78571;SHT31;67861;51.966;5.672;2023-03-31T06:56:29;13.9;67.8
78571;SHT31;67861;51.966;5.672;2023-03-31T06:58:59;13.9;68.2
78571;SHT31;67861;51.966;5.672;2023-03-31T07:01:28;13.9;67.7
78571;SHT31;67861;51.966;5.672;2023-03-31T07:03:58;13.9;67.7
78571;SHT31;67861;51.966;5.672;2023-03-31T07:06:28;13.9;67.8
78571;SHT31;67861;51.966;5.672;2023-03-31T07:08:57;13.9;68.1
78571;SHT31;67861;51.966;5.672;2023-03-31T07:11:27;13.9;67.9
78571;SHT31;67861;51.966;5.672;2023-03-31T07:13:57;13.9;68.1
78571;SHT31;67861;51.966;5.672;2023-03-31T07:16:28;13.9;68.2
78571;SHT31;67861;51.966;5.672;2023-03-31T07:18:58;13.9;68.5
78571;SHT31;67861;51.966;5.672;2023-03-31T07:21:30;13.9;68.6
78571;SHT31;67861;51.966;5.672;2023-03-31T07:24:03;13.9;68.8
78571;SHT31;67861;51.966;5.672;2023-03-31T07:26:33;13.9;68.8
78571;SHT31;67861;51.966;5.672;2023-03-31T07:29:03;13.9;69.2
78571;SHT31;67861;51.966;5.672;2023-03-31T07:31:33;13.9;69.1
78571;SHT31;67861;51.966;5.672;2023-03-31T07:34:03;13.9;69.4
78571;SHT31;67861;51.966;5.672;2023-03-31T07:36:33;13.9;69.5
78571;SHT31;67861;51.966;5.672;2023-03-31T07:39:04;13.9;69.6
78571;SHT31;67861;51.966;5.672;2023-03-31T07:41:34;14.0;69.6
78571;SHT31;67861;51.966;5.672;2023-03-31T07:44:04;14.0;69.8
78571;SHT31;67861;51.966;5.672;2023-03-31T07:46:34;14.0;69.7
78571;SHT31;67861;51.966;5.672;2023-03-31T07:49:04;14.0;69.6
78571;SHT31;67861;51.966;5.672;2023-03-31T07:51:34;14.1;69.5
78571;SHT31;67861;51.966;5.672;2023-03-31T07:54:04;14.1;69.1
78571;SHT31;67861;51.966;5.672;2023-03-31T07:56:33;14.1;69.0
78571;SHT31;67861;51.966;5.672;2023-03-31T07:59:07;14.1;69.2
78571;SHT31;67861;51.966;5.672;2023-03-31T08:01:37;14.1;69.6
78571;SHT31;67861;51.966;5.672;2023-03-31T08:04:10;14.2;69.6
78571;SHT31;67861;51.966;5.672;2023-03-31T08:06:42;14.2;69.2
78571;SHT31;67861;51.966;5.672;2023-03-31T08:09:12;14.2;68.7
78571;SHT31;67861;51.966;5.672;2023-03-31T08:11:45;14.3;69.2
78571;SHT31;67861;51.966;5.672;2023-03-31T08:14:15;14.3;69.0
78571;SHT31;67861;51.966;5.672;2023-03-31T08:16:44;14.3;69.1
78571;SHT31;67861;51.966;5.672;2023-03-31T08:19:14;14.4;68.9
78571;SHT31;67861;51.966;5.672;2023-03-31T08:21:44;14.4;69.4
78571;SHT31;67861;51.966;5.672;2023-03-31T08:24:15;14.4;69.8
78571;SHT31;67861;51.966;5.672;2023-03-31T08:26:48;14.4;69.9
78571;SHT31;67861;51.966;5.672;2023-03-31T08:29:17;14.4;69.4
78571;SHT31;67861;51.966;5.672;2023-03-31T08:31:47;14.5;70.0
78571;SHT31;67861;51.966;5.672;2023-03-31T08:34:20;14.5;69.9
78571;SHT31;67861;51.966;5.672;2023-03-31T08:36:49;14.5;70.6
78571;SHT31;67861;51.966;5.672;2023-03-31T08:39:20;14.6;70.5
78571;SHT31;67861;51.966;5.672;2023-03-31T08:41:55;14.6;69.9
78571;SHT31;67861;51.966;5.672;2023-03-31T08:44:32;14.7;70.8
78571;SHT31;67861;51.966;5.672;2023-03-31T08:47:06;14.7;69.6
78571;SHT31;67861;51.966;5.672;2023-03-31T08:49:43;14.8;70.2
78571;SHT31;67861;51.966;5.672;2023-03-31T08:52:19;14.8;70.5
78571;SHT31;67861;51.966;5.672;2023-03-31T08:54:54;14.9;70.0
78571;SHT31;67861;51.966;5.672;2023-03-31T08:57:30;14.9;69.9
78571;SHT31;67861;51.966;5.672;2023-03-31T09:00:01;14.9;69.0
78571;SHT31;67861;51.966;5.672;2023-03-31T09:02:41;15.0;68.7
78571;SHT31;67861;51.966;5.672;2023-03-31T09:05:38;15.0;68.5
78571;SHT31;67861;51.966;5.672;2023-03-31T09:08:22;15.0;69.5
78571;SHT31;67861;51.966;5.672;2023-03-31T09:10:59;15.1;69.3
78571;SHT31;67861;51.966;5.672;2023-03-31T09:13:55;15.1;68.6
78571;SHT31;67861;51.966;5.672;2023-03-31T09:16:33;15.1;67.9
78571;SHT31;67861;51.966;5.672;2023-03-31T09:19:14;15.1;68.4
78571;SHT31;67861;51.966;5.672;2023-03-31T09:21:48;15.1;68.7
78571;SHT31;67861;51.966;5.672;2023-03-31T09:24:23;15.1;68.2
78571;SHT31;67861;51.966;5.672;2023-03-31T09:27:00;15.2;69.0
78571;SHT31;67861;51.966;5.672;2023-03-31T09:29:39;15.2;68.7
78571;SHT31;67861;51.966;5.672;2023-03-31T09:32:14;15.2;69.1
78571;SHT31;67861;51.966;5.672;2023-03-31T09:34:49;15.2;68.7
78571;SHT31;67861;51.966;5.672;2023-03-31T09:37:19;15.3;68.6
78571;SHT31;67861;51.966;5.672;2023-03-31T09:39:49;15.3;69.0
78571;SHT31;67861;51.966;5.672;2023-03-31T09:42:19;15.3;68.0
78571;SHT31;67861;51.966;5.672;2023-03-31T09:44:48;15.4;67.1
78571;SHT31;67861;51.966;5.672;2023-03-31T09:47:24;15.4;66.7
78571;SHT31;67861;51.966;5.672;2023-03-31T09:49:57;15.4;65.9
78571;SHT31;67861;51.966;5.672;2023-03-31T09:52:31;15.4;66.0
78571;SHT31;67861;51.966;5.672;2023-03-31T09:55:03;15.4;66.5
78571;SHT31;67861;51.966;5.672;2023-03-31T09:57:40;15.4;66.7
78571;SHT31;67861;51.966;5.672;2023-03-31T10:00:17;15.5;66.1
78571;SHT31;67861;51.966;5.672;2023-03-31T10:02:50;15.5;65.9
78571;SHT31;67861;51.966;5.672;2023-03-31T10:05:25;15.5;65.5
78571;SHT31;67861;51.966;5.672;2023-03-31T10:08:20;15.5;64.7
78571;SHT31;67861;51.966;5.672;2023-03-31T10:10:53;15.6;64.8
78571;SHT31;67861;51.966;5.672;2023-03-31T10:13:25;15.6;64.4
78571;SHT31;67861;51.966;5.672;2023-03-31T10:16:03;15.6;63.6
78571;SHT31;67861;51.966;5.672;2023-03-31T10:18:36;15.6;63.6
78571;SHT31;67861;51.966;5.672;2023-03-31T10:21:19;15.6;63.4
78571;SHT31;67861;51.966;5.672;2023-03-31T10:23:50;15.6;63.1
78571;SHT31;67861;51.966;5.672;2023-03-31T10:26:23;15.6;63.9
78571;SHT31;67861;51.966;5.672;2023-03-31T10:28:54;15.6;64.2
78571;SHT31;67861;51.966;5.672;2023-03-31T10:31:35;15.6;64.9
78571;SHT31;67861;51.966;5.672;2023-03-31T10:34:08;15.7;64.2
78571;SHT31;67861;51.966;5.672;2023-03-31T10:36:47;15.7;62.7
78571;SHT31;67861;51.966;5.672;2023-03-31T10:39:18;15.8;63.3
78571;SHT31;67861;51.966;5.672;2023-03-31T10:41:52;15.8;63.0
78571;SHT31;67861;51.966;5.672;2023-03-31T10:44:42;15.9;62.9
78571;SHT31;67861;51.966;5.672;2023-03-31T10:47:19;15.9;62.1
78571;SHT31;67861;51.966;5.672;2023-03-31T10:49:57;15.9;62.0
78571;SHT31;67861;51.966;5.672;2023-03-31T10:52:43;16.0;61.5
78571;SHT31;67861;51.966;5.672;2023-03-31T10:55:21;16.1;61.3
78571;SHT31;67861;51.966;5.672;2023-03-31T10:57:55;16.1;61.4
78571;SHT31;67861;51.966;5.672;2023-03-31T11:00:31;16.2;61.8
78571;SHT31;67861;51.966;5.672;2023-03-31T11:03:16;16.2;60.3
78571;SHT31;67861;51.966;5.672;2023-03-31T11:05:53;16.3;60.5
78571;SHT31;67861;51.966;5.672;2023-03-31T11:08:40;16.3;59.8
78571;SHT31;67861;51.966;5.672;2023-03-31T11:11:24;16.4;60.3
78571;SHT31;67861;51.966;5.672;2023-03-31T11:14:01;16.4;59.6
78571;SHT31;67861;51.966;5.672;2023-03-31T11:16:43;16.4;60.5
78571;SHT31;67861;51.966;5.672;2023-03-31T11:19:29;16.5;60.1
78571;SHT31;67861;51.966;5.672;2023-03-31T11:22:06;16.5;59.3
78571;SHT31;67861;51.966;5.672;2023-03-31T11:27:51;16.6;60.0
78571;SHT31;67861;51.966;5.672;2023-03-31T11:30:29;16.6;59.9
78571;SHT31;67861;51.966;5.672;2023-03-31T11:33:17;16.6;58.8
78571;SHT31;67861;51.966;5.672;2023-03-31T11:36:04;16.6;59.5
78571;SHT31;67861;51.966;5.672;2023-03-31T11:38:51;16.6;58.7
78571;SHT31;67861;51.966;5.672;2023-03-31T11:41:33;16.6;59.0
78571;SHT31;67861;51.966;5.672;2023-03-31T11:44:07;16.6;60.4
78571;SHT31;67861;51.966;5.672;2023-03-31T11:46:43;16.6;59.0
78571;SHT31;67861;51.966;5.672;2023-03-31T11:49:19;16.6;58.0
78571;SHT31;67861;51.966;5.672;2023-03-31T11:51:55;16.6;59.2
78571;SHT31;67861;51.966;5.672;2023-03-31T11:54:29;16.6;58.3
78571;SHT31;67861;51.966;5.672;2023-03-31T11:57:08;16.7;57.5
78571;SHT31;67861;51.966;5.672;2023-03-31T11:59:43;16.7;58.1
78571;SHT31;67861;51.966;5.672;2023-03-31T12:02:25;16.7;58.5
78571;SHT31;67861;51.966;5.672;2023-03-31T12:05:03;16.7;58.3
78571;SHT31;67861;51.966;5.672;2023-03-31T12:07:40;16.7;57.4
78571;SHT31;67861;51.966;5.672;2023-03-31T12:10:19;16.6;56.9
78571;SHT31;67861;51.966;5.672;2023-03-31T12:12:56;16.6;57.2
78571;SHT31;67861;51.966;5.672;2023-03-31T12:15:32;16.6;57.6
78571;SHT31;67861;51.966;5.672;2023-03-31T12:18:11;16.6;57.5
78571;SHT31;67861;51.966;5.672;2023-03-31T12:20:48;16.6;57.4
78571;SHT31;67861;51.966;5.672;2023-03-31T12:23:22;16.6;57.1
78571;SHT31;67861;51.966;5.672;2023-03-31T12:26:01;16.6;57.8
78571;SHT31;67861;51.966;5.672;2023-03-31T12:28:36;16.6;57.9
78571;SHT31;67861;51.966;5.672;2023-03-31T12:31:14;16.6;58.0
78571;SHT31;67861;51.966;5.672;2023-03-31T12:33:55;16.6;58.1
78571;SHT31;67861;51.966;5.672;2023-03-31T12:36:34;16.5;58.8
78571;SHT31;67861;51.966;5.672;2023-03-31T12:39:21;16.5;58.0
78571;SHT31;67861;51.966;5.672;2023-03-31T12:42:10;16.5;58.2
78571;SHT31;67861;51.966;5.672;2023-03-31T12:44:53;16.5;58.2
78571;SHT31;67861;51.966;5.672;2023-03-31T12:47:40;16.4;57.9
78571;SHT31;67861;51.966;5.672;2023-03-31T12:50:28;16.4;58.7
78571;SHT31;67861;51.966;5.672;2023-03-31T12:53:13;16.3;59.5
78571;SHT31;67861;51.966;5.672;2023-03-31T12:55:47;16.3;60.5
78571;SHT31;67861;51.966;5.672;2023-03-31T12:58:51;16.3;60.8
78571;SHT31;67861;51.966;5.672;2023-03-31T13:01:22;16.3;61.0
78571;SHT31;67861;51.966;5.672;2023-03-31T13:04:08;16.2;61.3
78571;SHT31;67861;51.966;5.672;2023-03-31T13:07:36;16.3;61.8
78571;SHT31;67861;51.966;5.672;2023-03-31T13:10:27;16.3;60.9
78571;SHT31;67861;51.966;5.672;2023-03-31T13:13:01;16.3;61.3
78571;SHT31;67861;51.966;5.672;2023-03-31T13:15:35;16.3;61.9
78571;SHT31;67861;51.966;5.672;2023-03-31T13:18:06;16.4;61.8
78571;SHT31;67861;51.966;5.672;2023-03-31T13:20:38;16.4;60.0
78571;SHT31;67861;51.966;5.672;2023-03-31T13:23:21;16.5;60.5
78571;SHT31;67861;51.966;5.672;2023-03-31T13:25:54;16.5;58.9
78571;SHT31;67861;51.966;5.672;2023-03-31T13:28:31;16.5;58.0
78571;SHT31;67861;51.966;5.672;2023-03-31T13:31:03;16.5;59.7
78571;SHT31;67861;51.966;5.672;2023-03-31T13:33:46;16.6;59.0
78571;SHT31;67861;51.966;5.672;2023-03-31T13:37:24;16.6;58.8
78571;SHT31;67861;51.966;5.672;2023-03-31T13:40:19;16.5;59.0
78571;SHT31;67861;51.966;5.672;2023-03-31T13:43:09;16.5;59.8
78571;SHT31;67861;51.966;5.672;2023-03-31T13:45:53;16.5;57.8
78571;SHT31;67861;51.966;5.672;2023-03-31T13:49:19;16.5;58.2
78571;SHT31;67861;51.966;5.672;2023-03-31T13:51:57;16.5;59.0
78571;SHT31;67861;51.966;5.672;2023-03-31T13:54:55;16.5;60.2
78571;SHT31;67861;51.966;5.672;2023-03-31T13:57:57;16.5;60.5
78571;SHT31;67861;51.966;5.672;2023-03-31T14:00:44;16.4;60.6
78571;SHT31;67861;51.966;5.672;2023-03-31T14:03:28;16.4;61.0
78571;SHT31;67861;51.966;5.672;2023-03-31T14:06:11;16.3;60.8
78571;SHT31;67861;51.966;5.672;2023-03-31T14:08:51;16.3;60.5
78571;SHT31;67861;51.966;5.672;2023-03-31T14:11:26;16.2;61.7
78571;SHT31;67861;51.966;5.672;2023-03-31T14:14:10;16.2;62.1
78571;SHT31;67861;51.966;5.672;2023-03-31T14:16:45;16.1;62.1
78571;SHT31;67861;51.966;5.672;2023-03-31T14:19:37;16.1;62.9
78571;SHT31;67861;51.966;5.672;2023-03-31T14:22:18;16.0;63.0
78571;SHT31;67861;51.966;5.672;2023-03-31T14:24:54;16.0;63.1
78571;SHT31;67861;51.966;5.672;2023-03-31T14:27:41;15.9;63.3
78571;SHT31;67861;51.966;5.672;2023-03-31T14:30:25;15.9;63.2
78571;SHT31;67861;51.966;5.672;2023-03-31T14:33:07;15.9;62.7
78571;SHT31;67861;51.966;5.672;2023-03-31T14:35:43;15.9;62.2
78571;SHT31;67861;51.966;5.672;2023-03-31T14:38:19;15.8;62.5
78571;SHT31;67861;51.966;5.672;2023-03-31T14:40:52;15.8;62.4
78571;SHT31;67861;51.966;5.672;2023-03-31T14:43:28;15.8;62.3
78571;SHT31;67861;51.966;5.672;2023-03-31T14:46:02;15.7;62.6
78571;SHT31;67861;51.966;5.672;2023-03-31T14:48:42;15.7;63.0
78571;SHT31;67861;51.966;5.672;2023-03-31T14:51:16;15.7;63.2
78571;SHT31;67861;51.966;5.672;2023-03-31T14:53:46;15.7;63.8
78571;SHT31;67861;51.966;5.672;2023-03-31T14:56:25;15.7;63.3
78571;SHT31;67861;51.966;5.672;2023-03-31T14:58:56;15.6;62.6
78571;SHT31;67861;51.966;5.672;2023-03-31T15:01:29;15.6;62.8
78571;SHT31;67861;51.966;5.672;2023-03-31T15:04:07;15.6;63.2
78571;SHT31;67861;51.966;5.672;2023-03-31T15:06:39;15.6;62.9
78571;SHT31;67861;51.966;5.672;2023-03-31T15:09:18;15.6;62.4
78571;SHT31;67861;51.966;5.672;2023-03-31T15:11:56;15.6;62.0
78571;SHT31;67861;51.966;5.672;2023-03-31T15:14:34;15.6;62.1
78571;SHT31;67861;51.966;5.672;2023-03-31T15:17:05;15.5;62.6
78571;SHT31;67861;51.966;5.672;2023-03-31T15:19:35;15.5;63.2
78571;SHT31;67861;51.966;5.672;2023-03-31T15:22:14;15.5;63.8
78571;SHT31;67861;51.966;5.672;2023-03-31T15:24:45;15.5;63.8
78571;SHT31;67861;51.966;5.672;2023-03-31T15:27:26;15.4;63.6
78571;SHT31;67861;51.966;5.672;2023-03-31T15:30:00;15.4;63.7
78571;SHT31;67861;51.966;5.672;2023-03-31T15:32:34;15.4;63.9
78571;SHT31;67861;51.966;5.672;2023-03-31T15:35:06;15.4;64.1
78571;SHT31;67861;51.966;5.672;2023-03-31T15:37:42;15.4;63.8
78571;SHT31;67861;51.966;5.672;2023-03-31T15:40:18;15.4;64.3
78571;SHT31;67861;51.966;5.672;2023-03-31T15:42:52;15.4;63.7
78571;SHT31;67861;51.966;5.672;2023-03-31T15:46:15;15.3;64.0
78571;SHT31;67861;51.966;5.672;2023-03-31T15:48:51;15.3;63.9
78571;SHT31;67861;51.966;5.672;2023-03-31T15:51:30;15.3;64.2
78571;SHT31;67861;51.966;5.672;2023-03-31T15:54:01;15.3;64.3
78571;SHT31;67861;51.966;5.672;2023-03-31T15:56:34;15.3;64.7
78571;SHT31;67861;51.966;5.672;2023-03-31T15:59:22;15.3;64.0
78571;SHT31;67861;51.966;5.672;2023-03-31T16:01:55;15.3;64.2
78571;SHT31;67861;51.966;5.672;2023-03-31T16:04:31;15.3;64.8
78571;SHT31;67861;51.966;5.672;2023-03-31T16:07:04;15.3;64.5
78571;SHT31;67861;51.966;5.672;2023-03-31T16:09:44;15.3;64.9
78571;SHT31;67861;51.966;5.672;2023-03-31T16:12:20;15.3;64.8
78571;SHT31;67861;51.966;5.672;2023-03-31T16:14:55;15.2;64.2
78571;SHT31;67861;51.966;5.672;2023-03-31T16:17:31;15.2;63.5
78571;SHT31;67861;51.966;5.672;2023-03-31T16:20:07;15.2;63.4
78571;SHT31;67861;51.966;5.672;2023-03-31T16:22:41;15.2;63.5
78571;SHT31;67861;51.966;5.672;2023-03-31T16:25:15;15.1;64.1
78571;SHT31;67861;51.966;5.672;2023-03-31T16:27:49;15.1;64.1
78571;SHT31;67861;51.966;5.672;2023-03-31T16:30:22;15.1;64.0
78571;SHT31;67861;51.966;5.672;2023-03-31T16:33:00;15.0;64.1
78571;SHT31;67861;51.966;5.672;2023-03-31T16:35:35;15.0;64.4
78571;SHT31;67861;51.966;5.672;2023-03-31T16:38:08;15.0;64.3
78571;SHT31;67861;51.966;5.672;2023-03-31T16:40:40;15.0;64.4
78571;SHT31;67861;51.966;5.672;2023-03-31T16:43:13;14.9;64.5
78571;SHT31;67861;51.966;5.672;2023-03-31T16:45:46;14.9;64.5
78571;SHT31;67861;51.966;5.672;2023-03-31T16:48:17;14.9;64.7
78571;SHT31;67861;51.966;5.672;2023-03-31T16:50:50;14.9;64.7
78571;SHT31;67861;51.966;5.672;2023-03-31T16:53:22;14.9;64.5
78571;SHT31;67861;51.966;5.672;2023-03-31T16:55:53;14.9;64.8
78571;SHT31;67861;51.966;5.672;2023-03-31T16:58:24;14.9;65.0
78571;SHT31;67861;51.966;5.672;2023-03-31T17:00:58;14.8;65.0
78571;SHT31;67861;51.966;5.672;2023-03-31T17:03:28;14.8;65.1
78571;SHT31;67861;51.966;5.672;2023-03-31T17:06:05;14.8;65.3
78571;SHT31;67861;51.966;5.672;2023-03-31T17:08:35;14.8;65.4
78571;SHT31;67861;51.966;5.672;2023-03-31T17:11:09;14.7;65.5
78571;SHT31;67861;51.966;5.672;2023-03-31T17:13:42;14.7;65.8